CAL131 RJCC-RCTP
Flight info
| Callsign | CAL131 |
|---|---|
| Flight time | 4h 12m |
| Altitude | 38000 |
| Route | DALBI Y120 TAPPI Y12 ARIKA Y14 MIHOU Y45 HKC Y50 IGMON A1 DRAKE DRAKE1A |
| Aircraft | A359/H-SDE1E2E3FGHIJ1J2J3J4J5M1P2RWY/LB1D1 |
Departure
| Time | 2026-02-17 06:34 |
|---|---|
| Airport | New Chitose Airport (RJCC) |
Arrival
| Time | 2026-02-17 10:46 |
|---|---|
| Airport | Taiwan Taoyuan International Airport (RCTP) |
| Time | Latitude | Longitude | Altitude | Speed | Heading |
|---|---|---|---|---|---|
| 2026-02-17 06:02 | 42.78808 | 141.67467 | 96 ft | 0 kts | 83° |
| 2026-02-17 06:20 | 42.78807 | 141.67464 | 96 ft | 1 kts | 83° |
| 2026-02-17 06:20 | 42.78805 | 141.67444 | 96 ft | 2 kts | 82° |
| 2026-02-17 06:20 | 42.78804 | 141.67424 | 96 ft | 2 kts | 82° |
| 2026-02-17 06:20 | 42.78802 | 141.67410 | 96 ft | 1 kts | 83° |
| 2026-02-17 06:21 | 42.78799 | 141.67390 | 96 ft | 2 kts | 59° |
| 2026-02-17 06:21 | 42.78789 | 141.67377 | 96 ft | 2 kts | 32° |
| 2026-02-17 06:21 | 42.78775 | 141.67368 | 96 ft | 2 kts | 7° |
| 2026-02-17 06:21 | 42.78766 | 141.67368 | 96 ft | 0 kts | 352° |
| 2026-02-17 06:22 | 42.78762 | 141.67369 | 96 ft | 0 kts | 352° |
| 2026-02-17 06:25 | 42.78767 | 141.67368 | 96 ft | 1 kts | 353° |
| 2026-02-17 06:25 | 42.78787 | 141.67364 | 96 ft | 4 kts | 354° |
| 2026-02-17 06:26 | 42.78828 | 141.67358 | 96 ft | 8 kts | 353° |
| 2026-02-17 06:26 | 42.78891 | 141.67348 | 96 ft | 9 kts | 353° |
| 2026-02-17 06:26 | 42.78961 | 141.67335 | 96 ft | 10 kts | 353° |
| 2026-02-17 06:27 | 42.79079 | 141.67352 | 96 ft | 5 kts | 55° |
| 2026-02-17 06:27 | 42.79092 | 141.67415 | 96 ft | 7 kts | 82° |
| 2026-02-17 06:27 | 42.79100 | 141.67494 | 96 ft | 9 kts | 83° |
| 2026-02-17 06:27 | 42.79109 | 141.67589 | 96 ft | 10 kts | 82° |
| 2026-02-17 06:28 | 42.79120 | 141.67697 | 96 ft | 12 kts | 83° |
| 2026-02-17 06:28 | 42.79129 | 141.67796 | 96 ft | 10 kts | 84° |
| 2026-02-17 06:28 | 42.79134 | 141.67896 | 96 ft | 9 kts | 90° |
| 2026-02-17 06:28 | 42.79127 | 141.67987 | 96 ft | 10 kts | 101° |
| 2026-02-17 06:29 | 42.79105 | 141.68082 | 96 ft | 10 kts | 114° |
| 2026-02-17 06:29 | 42.79071 | 141.68166 | 96 ft | 10 kts | 124° |
| 2026-02-17 06:29 | 42.79022 | 141.68247 | 96 ft | 11 kts | 134° |
| 2026-02-17 06:29 | 42.78962 | 141.68317 | 96 ft | 9 kts | 145° |
| 2026-02-17 06:30 | 42.78904 | 141.68361 | 96 ft | 10 kts | 156° |
| 2026-02-17 06:30 | 42.78841 | 141.68387 | 96 ft | 6 kts | 168° |
| 2026-02-17 06:30 | 42.78807 | 141.68410 | 96 ft | 5 kts | 134° |
| 2026-02-17 06:31 | 42.78801 | 141.68535 | 96 ft | 8 kts | 83° |
| 2026-02-17 06:31 | 42.78809 | 141.68619 | 96 ft | 9 kts | 84° |
| 2026-02-17 06:31 | 42.78815 | 141.68692 | 96 ft | 5 kts | 83° |
| 2026-02-17 06:31 | 42.78820 | 141.68751 | 96 ft | 7 kts | 83° |
| 2026-02-17 06:32 | 42.78819 | 141.68791 | 96 ft | 2 kts | 112° |
| 2026-02-17 06:32 | 42.78801 | 141.68811 | 96 ft | 4 kts | 155° |
| 2026-02-17 06:32 | 42.78767 | 141.68823 | 96 ft | 3 kts | 170° |
| 2026-02-17 06:32 | 42.78762 | 141.68825 | 96 ft | 0 kts | 171° |
| 2026-02-17 06:33 | 42.78755 | 141.68826 | 96 ft | 7 kts | 171° |
| 2026-02-17 06:33 | 42.78451 | 141.68881 | 96 ft | 80 kts | 173° |
| 2026-02-17 06:33 | 42.77676 | 141.69016 | 97 ft | 143 kts | 173° |
| 2026-02-17 06:34 | 42.76541 | 141.69209 | 319 ft | 175 kts | 173° |
| 2026-02-17 06:34 | 42.75359 | 141.69400 | 1125 ft | 170 kts | 173° |
| 2026-02-17 06:34 | 42.74210 | 141.69624 | 1938 ft | 166 kts | 172° |
| 2026-02-17 06:35 | 42.71815 | 141.70119 | 2661 ft | 189 kts | 173° |
| 2026-02-17 06:35 | 42.70457 | 141.70390 | 2968 ft | 204 kts | 173° |
| 2026-02-17 06:35 | 42.68993 | 141.70692 | 3279 ft | 221 kts | 173° |
| 2026-02-17 06:35 | 42.67417 | 141.71011 | 3665 ft | 237 kts | 173° |
| 2026-02-17 06:36 | 42.65736 | 141.71336 | 4125 ft | 251 kts | 177° |
| 2026-02-17 06:36 | 42.64026 | 141.70989 | 4779 ft | 253 kts | 207° |
| 2026-02-17 06:36 | 42.62662 | 141.69559 | 5588 ft | 251 kts | 233° |
| 2026-02-17 06:36 | 42.61923 | 141.67412 | 6348 ft | 253 kts | 258° |
| 2026-02-17 06:37 | 42.61625 | 141.65077 | 7106 ft | 256 kts | 261° |
| 2026-02-17 06:37 | 42.61330 | 141.62709 | 7859 ft | 258 kts | 261° |
| 2026-02-17 06:37 | 42.61026 | 141.60309 | 8641 ft | 260 kts | 261° |
| 2026-02-17 06:37 | 42.60717 | 141.57901 | 9391 ft | 262 kts | 261° |
| 2026-02-17 06:38 | 42.60402 | 141.55470 | 10124 ft | 264 kts | 261° |
| 2026-02-17 06:38 | 42.60080 | 141.53009 | 10659 ft | 274 kts | 260° |
| 2026-02-17 06:38 | 42.59733 | 141.50378 | 10999 ft | 289 kts | 260° |
| 2026-02-17 06:39 | 42.58985 | 141.44745 | 11642 ft | 320 kts | 260° |
| 2026-02-17 06:39 | 42.58578 | 141.41693 | 11994 ft | 333 kts | 260° |
| 2026-02-17 06:39 | 42.58165 | 141.38597 | 12585 ft | 338 kts | 260° |
| 2026-02-17 06:39 | 42.57742 | 141.35446 | 13242 ft | 341 kts | 260° |
| 2026-02-17 06:40 | 42.57323 | 141.32309 | 13892 ft | 344 kts | 259° |
| 2026-02-17 06:40 | 42.56832 | 141.29125 | 14527 ft | 347 kts | 255° |
| 2026-02-17 06:40 | 42.56134 | 141.25981 | 15161 ft | 349 kts | 251° |
| 2026-02-17 06:40 | 42.55241 | 141.22935 | 15767 ft | 352 kts | 247° |
| 2026-02-17 06:41 | 42.54255 | 141.19885 | 16374 ft | 355 kts | 246° |
| 2026-02-17 06:41 | 42.53266 | 141.16853 | 16974 ft | 357 kts | 246° |
| 2026-02-17 06:41 | 42.52258 | 141.13776 | 17542 ft | 360 kts | 246° |
| 2026-02-17 06:41 | 42.51244 | 141.10680 | 18097 ft | 363 kts | 246° |
| 2026-02-17 06:42 | 42.50221 | 141.07558 | 18642 ft | 365 kts | 246° |
| 2026-02-17 06:42 | 42.49189 | 141.04410 | 19172 ft | 368 kts | 246° |
| 2026-02-17 06:42 | 42.48141 | 141.01218 | 19702 ft | 371 kts | 246° |
| 2026-02-17 06:43 | 42.46041 | 140.94832 | 20757 ft | 376 kts | 246° |
| 2026-02-17 06:43 | 42.44972 | 140.91589 | 21258 ft | 378 kts | 246° |
| 2026-02-17 06:43 | 42.43905 | 140.88351 | 21726 ft | 381 kts | 246° |
| 2026-02-17 06:43 | 42.42823 | 140.85075 | 22206 ft | 384 kts | 246° |
| 2026-02-17 06:44 | 42.41727 | 140.81760 | 22685 ft | 386 kts | 246° |
| 2026-02-17 06:44 | 42.40639 | 140.78473 | 23152 ft | 388 kts | 246° |
| 2026-02-17 06:44 | 42.39537 | 140.75151 | 23615 ft | 390 kts | 246° |
| 2026-02-17 06:44 | 42.38413 | 140.71767 | 24048 ft | 393 kts | 247° |
| 2026-02-17 06:45 | 42.37297 | 140.68408 | 24448 ft | 396 kts | 246° |
| 2026-02-17 06:45 | 42.36050 | 140.65077 | 24807 ft | 400 kts | 237° |
| 2026-02-17 06:45 | 42.34181 | 140.62354 | 25199 ft | 405 kts | 221° |
| 2026-02-17 06:45 | 42.31726 | 140.60420 | 25621 ft | 413 kts | 205° |
| 2026-02-17 06:46 | 42.28971 | 140.59279 | 26001 ft | 417 kts | 200° |
| 2026-02-17 06:46 | 42.26185 | 140.58232 | 26276 ft | 421 kts | 200° |
| 2026-02-17 06:46 | 42.23343 | 140.57167 | 26539 ft | 424 kts | 200° |
| 2026-02-17 06:47 | 42.17625 | 140.55022 | 27173 ft | 428 kts | 200° |
| 2026-02-17 06:47 | 42.14748 | 140.53941 | 27487 ft | 430 kts | 200° |
| 2026-02-17 06:47 | 42.11878 | 140.52863 | 27809 ft | 431 kts | 200° |
| 2026-02-17 06:47 | 42.08998 | 140.51779 | 28095 ft | 432 kts | 200° |
| 2026-02-17 06:48 | 42.06077 | 140.50685 | 28376 ft | 434 kts | 200° |
| 2026-02-17 06:48 | 42.03179 | 140.49599 | 28627 ft | 436 kts | 200° |
| 2026-02-17 06:48 | 42.00257 | 140.48506 | 28844 ft | 438 kts | 200° |
| 2026-02-17 06:48 | 41.97301 | 140.47401 | 29084 ft | 440 kts | 200° |
| 2026-02-17 06:49 | 41.94352 | 140.46300 | 29330 ft | 441 kts | 200° |
| 2026-02-17 06:49 | 41.91404 | 140.45200 | 29583 ft | 443 kts | 200° |
| 2026-02-17 06:49 | 41.88435 | 140.44093 | 29792 ft | 445 kts | 200° |
| 2026-02-17 06:49 | 41.85438 | 140.42982 | 30019 ft | 446 kts | 200° |
| 2026-02-17 06:50 | 41.82468 | 140.41884 | 30232 ft | 447 kts | 200° |
| 2026-02-17 06:50 | 41.79470 | 140.40773 | 30432 ft | 449 kts | 200° |
| 2026-02-17 06:50 | 41.76455 | 140.39653 | 30661 ft | 450 kts | 201° |
| 2026-02-17 06:51 | 41.70423 | 140.37413 | 31030 ft | 452 kts | 201° |
| 2026-02-17 06:51 | 41.67401 | 140.36290 | 31314 ft | 452 kts | 201° |
| 2026-02-17 06:51 | 41.64397 | 140.35176 | 31637 ft | 450 kts | 201° |
| 2026-02-17 06:51 | 41.61370 | 140.34052 | 31950 ft | 448 kts | 200° |
| 2026-02-17 06:52 | 41.58365 | 140.32930 | 32237 ft | 447 kts | 200° |
| 2026-02-17 06:52 | 41.55394 | 140.31824 | 32476 ft | 447 kts | 200° |
| 2026-02-17 06:52 | 41.52400 | 140.30714 | 32708 ft | 446 kts | 201° |
| 2026-02-17 06:52 | 41.49421 | 140.29613 | 32975 ft | 446 kts | 201° |
| 2026-02-17 06:53 | 41.46444 | 140.28517 | 33233 ft | 444 kts | 201° |
| 2026-02-17 06:53 | 41.43485 | 140.27429 | 33432 ft | 444 kts | 201° |
| 2026-02-17 06:53 | 41.40503 | 140.26331 | 33613 ft | 444 kts | 201° |
| 2026-02-17 06:53 | 41.37499 | 140.25227 | 33757 ft | 444 kts | 201° |
| 2026-02-17 06:54 | 41.34558 | 140.24149 | 33888 ft | 444 kts | 201° |
| 2026-02-17 06:54 | 41.31564 | 140.23051 | 34094 ft | 444 kts | 201° |
| 2026-02-17 06:54 | 41.28569 | 140.21957 | 34255 ft | 443 kts | 201° |
| 2026-02-17 06:55 | 41.22664 | 140.19801 | 34521 ft | 444 kts | 201° |
| 2026-02-17 06:55 | 41.19680 | 140.18712 | 34718 ft | 444 kts | 201° |
| 2026-02-17 06:55 | 41.16701 | 140.17625 | 34869 ft | 443 kts | 201° |
| 2026-02-17 06:55 | 41.13747 | 140.16551 | 35015 ft | 443 kts | 201° |
| 2026-02-17 06:56 | 41.10773 | 140.15495 | 35165 ft | 444 kts | 201° |
| 2026-02-17 06:56 | 41.07794 | 140.14461 | 35352 ft | 443 kts | 201° |
| 2026-02-17 06:56 | 41.01825 | 140.12402 | 35544 ft | 442 kts | 201° |
| 2026-02-17 06:57 | 40.98842 | 140.11372 | 35679 ft | 442 kts | 201° |
| 2026-02-17 06:57 | 40.95875 | 140.10349 | 35783 ft | 442 kts | 201° |
| 2026-02-17 06:57 | 40.92916 | 140.09328 | 35898 ft | 442 kts | 201° |
| 2026-02-17 06:57 | 40.89920 | 140.08295 | 35981 ft | 441 kts | 201° |
| 2026-02-17 06:58 | 40.86963 | 140.07281 | 36082 ft | 441 kts | 201° |
| 2026-02-17 06:58 | 40.83991 | 140.06267 | 36191 ft | 441 kts | 202° |
| 2026-02-17 06:58 | 40.81031 | 140.05254 | 36324 ft | 441 kts | 201° |
| 2026-02-17 06:59 | 40.75104 | 140.03224 | 36456 ft | 441 kts | 202° |
| 2026-02-17 06:59 | 40.69195 | 140.01198 | 36608 ft | 442 kts | 202° |
| 2026-02-17 07:00 | 40.63247 | 139.99162 | 36717 ft | 442 kts | 202° |
| 2026-02-17 07:00 | 40.57288 | 139.97125 | 36895 ft | 443 kts | 202° |
| 2026-02-17 07:01 | 40.51333 | 139.95096 | 36977 ft | 444 kts | 202° |
| 2026-02-17 07:01 | 40.45478 | 139.92741 | 37068 ft | 438 kts | 207° |
| 2026-02-17 07:02 | 40.39899 | 139.89671 | 37198 ft | 434 kts | 213° |
| 2026-02-17 07:02 | 40.34542 | 139.86092 | 37294 ft | 433 kts | 214° |
| 2026-02-17 07:03 | 40.26497 | 139.80693 | 37395 ft | 434 kts | 214° |
| 2026-02-17 07:03 | 40.21106 | 139.77078 | 37564 ft | 434 kts | 214° |
| 2026-02-17 07:04 | 40.15760 | 139.73498 | 37587 ft | 435 kts | 214° |
| 2026-02-17 07:04 | 40.10371 | 139.69896 | 37706 ft | 435 kts | 214° |
| 2026-02-17 07:05 | 40.04989 | 139.66303 | 37775 ft | 436 kts | 214° |
| 2026-02-17 07:05 | 39.99545 | 139.62741 | 37855 ft | 437 kts | 214° |
| 2026-02-17 07:06 | 39.94115 | 139.59216 | 37928 ft | 437 kts | 214° |
| 2026-02-17 07:07 | 39.85971 | 139.53944 | 38055 ft | 438 kts | 214° |
| 2026-02-17 07:07 | 39.80519 | 139.50439 | 38140 ft | 437 kts | 214° |
| 2026-02-17 07:08 | 39.75082 | 139.46933 | 38140 ft | 438 kts | 214° |
| 2026-02-17 07:08 | 39.69621 | 139.43411 | 38140 ft | 437 kts | 214° |
| 2026-02-17 07:09 | 39.64178 | 139.39908 | 38127 ft | 437 kts | 214° |
| 2026-02-17 07:09 | 39.58740 | 139.36410 | 38134 ft | 436 kts | 214° |
| 2026-02-17 07:10 | 39.53335 | 139.32928 | 38131 ft | 437 kts | 214° |
| 2026-02-17 07:10 | 39.47901 | 139.29422 | 38181 ft | 436 kts | 214° |
| 2026-02-17 07:11 | 39.39740 | 139.24187 | 38144 ft | 437 kts | 214° |
| 2026-02-17 07:11 | 39.34321 | 139.20726 | 38150 ft | 436 kts | 214° |
| 2026-02-17 07:12 | 39.28859 | 139.17244 | 38158 ft | 436 kts | 214° |
| 2026-02-17 07:12 | 39.23454 | 139.13806 | 38133 ft | 436 kts | 214° |
| 2026-02-17 07:13 | 39.18018 | 139.10356 | 38156 ft | 436 kts | 214° |
| 2026-02-17 07:13 | 39.12556 | 139.06895 | 38138 ft | 436 kts | 214° |
| 2026-02-17 07:14 | 39.07150 | 139.03476 | 38148 ft | 435 kts | 214° |
| 2026-02-17 07:15 | 38.99017 | 138.98344 | 38161 ft | 434 kts | 214° |
| 2026-02-17 07:15 | 38.93593 | 138.94926 | 38133 ft | 435 kts | 214° |
| 2026-02-17 07:16 | 38.88153 | 138.91510 | 38161 ft | 435 kts | 214° |
| 2026-02-17 07:16 | 38.82705 | 138.88112 | 38165 ft | 436 kts | 214° |
| 2026-02-17 07:17 | 38.77249 | 138.84708 | 38141 ft | 434 kts | 215° |
| 2026-02-17 07:17 | 38.71865 | 138.81346 | 38154 ft | 433 kts | 215° |
| 2026-02-17 07:18 | 38.66452 | 138.77965 | 38153 ft | 433 kts | 215° |
| 2026-02-17 07:18 | 38.61047 | 138.74593 | 38173 ft | 433 kts | 215° |
| 2026-02-17 07:19 | 38.52942 | 138.69554 | 38154 ft | 432 kts | 216° |
| 2026-02-17 07:19 | 38.47510 | 138.66177 | 38182 ft | 433 kts | 216° |
| 2026-02-17 07:20 | 38.42121 | 138.62836 | 38151 ft | 432 kts | 216° |
| 2026-02-17 07:20 | 38.36732 | 138.59499 | 38150 ft | 432 kts | 216° |
| 2026-02-17 07:21 | 38.31321 | 138.56155 | 38157 ft | 432 kts | 215° |
| 2026-02-17 07:21 | 38.25902 | 138.52817 | 38130 ft | 432 kts | 216° |
| 2026-02-17 07:22 | 38.20528 | 138.49507 | 38141 ft | 432 kts | 216° |
| 2026-02-17 07:23 | 38.12640 | 138.44176 | 38110 ft | 422 kts | 223° |
| 2026-02-17 07:23 | 38.06083 | 138.37056 | 38124 ft | 407 kts | 235° |
| 2026-02-17 07:24 | 38.02630 | 138.31497 | 38121 ft | 400 kts | 242° |
| 2026-02-17 07:24 | 37.99815 | 138.25450 | 38134 ft | 400 kts | 245° |
| 2026-02-17 07:25 | 37.97075 | 138.19321 | 38145 ft | 399 kts | 245° |
| 2026-02-17 07:25 | 37.94366 | 138.13219 | 38154 ft | 399 kts | 245° |
| 2026-02-17 07:26 | 37.91678 | 138.07146 | 38179 ft | 397 kts | 246° |
| 2026-02-17 07:27 | 37.87590 | 137.97966 | 38128 ft | 400 kts | 245° |
| 2026-02-17 07:27 | 37.84850 | 137.91872 | 38164 ft | 399 kts | 245° |
| 2026-02-17 07:28 | 37.82136 | 137.85806 | 38151 ft | 399 kts | 246° |
| 2026-02-17 07:28 | 37.79395 | 137.79686 | 38150 ft | 398 kts | 245° |
| 2026-02-17 07:29 | 37.76682 | 137.73637 | 38135 ft | 398 kts | 245° |
| 2026-02-17 07:29 | 37.73965 | 137.67589 | 38151 ft | 397 kts | 246° |
| 2026-02-17 07:30 | 37.71250 | 137.61557 | 38139 ft | 394 kts | 246° |
| 2026-02-17 07:30 | 37.68552 | 137.55569 | 38137 ft | 394 kts | 246° |
| 2026-02-17 07:31 | 37.64496 | 137.46582 | 38142 ft | 393 kts | 246° |
| 2026-02-17 07:31 | 37.61811 | 137.40655 | 38142 ft | 392 kts | 246° |
| 2026-02-17 07:32 | 37.59102 | 137.34676 | 38150 ft | 394 kts | 245° |
| 2026-02-17 07:32 | 37.56391 | 137.28693 | 38131 ft | 393 kts | 245° |
| 2026-02-17 07:33 | 37.53701 | 137.22765 | 38173 ft | 393 kts | 245° |
| 2026-02-17 07:33 | 37.50978 | 137.16782 | 38136 ft | 393 kts | 245° |
| 2026-02-17 07:34 | 37.48247 | 137.10800 | 38121 ft | 394 kts | 245° |
| 2026-02-17 07:35 | 37.44156 | 137.01866 | 38121 ft | 393 kts | 246° |
| 2026-02-17 07:35 | 37.41437 | 136.95940 | 38110 ft | 394 kts | 245° |
| 2026-02-17 07:36 | 37.38702 | 136.89993 | 38108 ft | 392 kts | 246° |
| 2026-02-17 07:36 | 37.35984 | 136.84091 | 38097 ft | 392 kts | 246° |
| 2026-02-17 07:37 | 37.33262 | 136.78180 | 38111 ft | 391 kts | 245° |
| 2026-02-17 07:37 | 37.30520 | 136.72252 | 38113 ft | 393 kts | 246° |
| 2026-02-17 07:38 | 37.27794 | 136.66365 | 38118 ft | 393 kts | 245° |
| 2026-02-17 07:38 | 37.25052 | 136.60455 | 38113 ft | 393 kts | 246° |
| 2026-02-17 07:39 | 37.20948 | 136.51630 | 38150 ft | 392 kts | 245° |
| 2026-02-17 07:39 | 37.18193 | 136.45725 | 38113 ft | 391 kts | 245° |
| 2026-02-17 07:40 | 37.15469 | 136.39894 | 38144 ft | 391 kts | 245° |
| 2026-02-17 07:40 | 37.12727 | 136.34029 | 38147 ft | 390 kts | 245° |
| 2026-02-17 07:41 | 37.09993 | 136.28178 | 38148 ft | 390 kts | 246° |
| 2026-02-17 07:41 | 37.07268 | 136.22356 | 38153 ft | 390 kts | 245° |
| 2026-02-17 07:42 | 37.04524 | 136.16521 | 38148 ft | 389 kts | 245° |
| 2026-02-17 07:43 | 37.00422 | 136.07819 | 38172 ft | 389 kts | 245° |
| 2026-02-17 07:43 | 36.97681 | 136.02019 | 38152 ft | 388 kts | 245° |
| 2026-02-17 07:44 | 36.94927 | 135.96187 | 38148 ft | 389 kts | 245° |
| 2026-02-17 07:44 | 36.92190 | 135.90401 | 38144 ft | 388 kts | 246° |
| 2026-02-17 07:45 | 36.89457 | 135.84634 | 38154 ft | 388 kts | 245° |
| 2026-02-17 07:45 | 36.86677 | 135.78851 | 38148 ft | 388 kts | 245° |
| 2026-02-17 07:46 | 36.83940 | 135.73140 | 38148 ft | 385 kts | 245° |
| 2026-02-17 07:46 | 36.81179 | 135.67368 | 38139 ft | 387 kts | 245° |
| 2026-02-17 07:47 | 36.77079 | 135.58815 | 38157 ft | 382 kts | 246° |
| 2026-02-17 07:47 | 36.74357 | 135.53128 | 38152 ft | 385 kts | 246° |
| 2026-02-17 07:48 | 36.71607 | 135.47401 | 38156 ft | 386 kts | 245° |
| 2026-02-17 07:48 | 36.68875 | 135.41721 | 38147 ft | 383 kts | 245° |
| 2026-02-17 07:49 | 36.66133 | 135.36038 | 38160 ft | 381 kts | 246° |
| 2026-02-17 07:49 | 36.63416 | 135.30391 | 38148 ft | 381 kts | 245° |
| 2026-02-17 07:50 | 36.60699 | 135.24745 | 38155 ft | 381 kts | 245° |
| 2026-02-17 07:51 | 36.56622 | 135.16316 | 38160 ft | 382 kts | 245° |
| 2026-02-17 07:51 | 36.53885 | 135.10675 | 38155 ft | 381 kts | 245° |
| 2026-02-17 07:52 | 36.51146 | 135.05037 | 38166 ft | 379 kts | 245° |
| 2026-02-17 07:52 | 36.48433 | 134.99464 | 38169 ft | 379 kts | 245° |
| 2026-02-17 07:53 | 36.45695 | 134.93849 | 38170 ft | 381 kts | 245° |
| 2026-02-17 07:53 | 36.42955 | 134.88242 | 38168 ft | 379 kts | 245° |
| 2026-02-17 07:54 | 36.38866 | 134.79892 | 38166 ft | 380 kts | 245° |
| 2026-02-17 07:55 | 36.34764 | 134.71533 | 38161 ft | 378 kts | 246° |
| 2026-02-17 07:55 | 36.32046 | 134.66011 | 38160 ft | 376 kts | 245° |
| 2026-02-17 07:56 | 36.29330 | 134.60496 | 38154 ft | 376 kts | 246° |
| 2026-02-17 07:56 | 36.26603 | 134.54970 | 38156 ft | 378 kts | 245° |
| 2026-02-17 07:57 | 36.23882 | 134.49464 | 38153 ft | 376 kts | 245° |
| 2026-02-17 07:57 | 36.21154 | 134.43950 | 38155 ft | 376 kts | 245° |
| 2026-02-17 07:58 | 36.18415 | 134.38422 | 38153 ft | 376 kts | 246° |
| 2026-02-17 07:58 | 36.15688 | 134.32933 | 38162 ft | 376 kts | 245° |
| 2026-02-17 07:59 | 36.11602 | 134.24696 | 38156 ft | 374 kts | 245° |
| 2026-02-17 07:59 | 36.08874 | 134.19217 | 38158 ft | 375 kts | 245° |
| 2026-02-17 08:00 | 36.06158 | 134.13788 | 38157 ft | 373 kts | 245° |
| 2026-02-17 08:00 | 36.03441 | 134.08362 | 38156 ft | 372 kts | 245° |
| 2026-02-17 08:01 | 36.00723 | 134.02951 | 38157 ft | 372 kts | 245° |
| 2026-02-17 08:01 | 35.97996 | 133.97520 | 38154 ft | 372 kts | 245° |
| 2026-02-17 08:02 | 35.95257 | 133.92075 | 38147 ft | 373 kts | 245° |
| 2026-02-17 08:03 | 35.91180 | 133.83960 | 38146 ft | 371 kts | 245° |
| 2026-02-17 08:03 | 35.88451 | 133.78574 | 38162 ft | 372 kts | 245° |
| 2026-02-17 08:04 | 35.85698 | 133.73171 | 38142 ft | 371 kts | 245° |
| 2026-02-17 08:04 | 35.82973 | 133.67815 | 38153 ft | 371 kts | 245° |
| 2026-02-17 08:05 | 35.80240 | 133.62437 | 38139 ft | 370 kts | 245° |
| 2026-02-17 08:05 | 35.77530 | 133.57104 | 38140 ft | 369 kts | 245° |
| 2026-02-17 08:06 | 35.74804 | 133.51744 | 38138 ft | 369 kts | 245° |
| 2026-02-17 08:06 | 35.72087 | 133.46408 | 38150 ft | 370 kts | 246° |
| 2026-02-17 08:07 | 35.67988 | 133.38380 | 38155 ft | 369 kts | 245° |
| 2026-02-17 08:07 | 35.65274 | 133.33067 | 38173 ft | 370 kts | 245° |
| 2026-02-17 08:08 | 35.62545 | 133.27716 | 38152 ft | 370 kts | 245° |
| 2026-02-17 08:08 | 35.59817 | 133.22392 | 38163 ft | 369 kts | 244° |
| 2026-02-17 08:09 | 35.56875 | 133.17162 | 38145 ft | 375 kts | 240° |
| 2026-02-17 08:09 | 35.53412 | 133.12360 | 38162 ft | 380 kts | 235° |
| 2026-02-17 08:10 | 35.49410 | 133.07991 | 38152 ft | 390 kts | 229° |
| 2026-02-17 08:11 | 35.42469 | 133.02515 | 38152 ft | 401 kts | 221° |
| 2026-02-17 08:11 | 35.37579 | 132.99258 | 38146 ft | 401 kts | 221° |
| 2026-02-17 08:12 | 35.32650 | 132.96014 | 38141 ft | 401 kts | 222° |
| 2026-02-17 08:12 | 35.27737 | 132.92799 | 38135 ft | 402 kts | 221° |
| 2026-02-17 08:13 | 35.22799 | 132.89581 | 38134 ft | 402 kts | 222° |
| 2026-02-17 08:13 | 35.17887 | 132.86389 | 38106 ft | 402 kts | 221° |
| 2026-02-17 08:14 | 35.12972 | 132.83153 | 38101 ft | 397 kts | 222° |
| 2026-02-17 08:14 | 35.08123 | 132.79952 | 38098 ft | 398 kts | 223° |
| 2026-02-17 08:15 | 35.00824 | 132.75139 | 38075 ft | 396 kts | 222° |
| 2026-02-17 08:15 | 34.95990 | 132.71956 | 38093 ft | 397 kts | 223° |
| 2026-02-17 08:16 | 34.91108 | 132.68742 | 38066 ft | 399 kts | 223° |
| 2026-02-17 08:16 | 34.86265 | 132.65584 | 38093 ft | 396 kts | 223° |
| 2026-02-17 08:17 | 34.81393 | 132.62407 | 38086 ft | 398 kts | 223° |
| 2026-02-17 08:17 | 34.76529 | 132.59241 | 38093 ft | 395 kts | 223° |
| 2026-02-17 08:18 | 34.71701 | 132.56082 | 38096 ft | 395 kts | 223° |
| 2026-02-17 08:19 | 34.64496 | 132.51392 | 38103 ft | 391 kts | 223° |
| 2026-02-17 08:19 | 34.59694 | 132.48259 | 38091 ft | 393 kts | 223° |
| 2026-02-17 08:20 | 34.54900 | 132.45136 | 38102 ft | 392 kts | 223° |
| 2026-02-17 08:20 | 34.50106 | 132.42023 | 38109 ft | 389 kts | 223° |
| 2026-02-17 08:21 | 34.45330 | 132.38927 | 38094 ft | 390 kts | 224° |
| 2026-02-17 08:21 | 34.40587 | 132.35851 | 38102 ft | 386 kts | 225° |
| 2026-02-17 08:22 | 34.35828 | 132.32742 | 38119 ft | 388 kts | 224° |
| 2026-02-17 08:22 | 34.31103 | 132.29649 | 38128 ft | 386 kts | 224° |
| 2026-02-17 08:23 | 34.23994 | 132.25032 | 38140 ft | 385 kts | 224° |
| 2026-02-17 08:23 | 34.19221 | 132.21944 | 38132 ft | 390 kts | 223° |
| 2026-02-17 08:24 | 34.14482 | 132.18892 | 38131 ft | 383 kts | 224° |
| 2026-02-17 08:24 | 34.09788 | 132.15860 | 38142 ft | 385 kts | 223° |
| 2026-02-17 08:25 | 34.04911 | 132.13097 | 38137 ft | 392 kts | 220° |
| 2026-02-17 08:25 | 33.99900 | 132.10475 | 38132 ft | 391 kts | 221° |
| 2026-02-17 08:26 | 33.94913 | 132.07873 | 38125 ft | 392 kts | 221° |
| 2026-02-17 08:27 | 33.87410 | 132.03975 | 38125 ft | 391 kts | 220° |
| 2026-02-17 08:27 | 33.82422 | 132.01416 | 38126 ft | 388 kts | 220° |
| 2026-02-17 08:28 | 33.77428 | 131.98830 | 38110 ft | 389 kts | 220° |
| 2026-02-17 08:28 | 33.72463 | 131.96254 | 38107 ft | 390 kts | 219° |
| 2026-02-17 08:29 | 33.67472 | 131.93671 | 38106 ft | 390 kts | 220° |
| 2026-02-17 08:29 | 33.62488 | 131.91092 | 38123 ft | 389 kts | 221° |
| 2026-02-17 08:30 | 33.57513 | 131.88516 | 38071 ft | 391 kts | 220° |
| 2026-02-17 08:30 | 33.52523 | 131.85947 | 38103 ft | 389 kts | 220° |
| 2026-02-17 08:31 | 33.45063 | 131.82100 | 38119 ft | 389 kts | 221° |
| 2026-02-17 08:31 | 33.40115 | 131.79550 | 38117 ft | 387 kts | 221° |
| 2026-02-17 08:32 | 33.35168 | 131.77008 | 38085 ft | 387 kts | 221° |
| 2026-02-17 08:32 | 33.30202 | 131.74458 | 38126 ft | 387 kts | 220° |
| 2026-02-17 08:33 | 33.25293 | 131.71919 | 38114 ft | 383 kts | 222° |
| 2026-02-17 08:33 | 33.20585 | 131.69054 | 38085 ft | 374 kts | 226° |
| 2026-02-17 08:34 | 33.16164 | 131.65846 | 38123 ft | 369 kts | 228° |
| 2026-02-17 08:35 | 33.09594 | 131.61005 | 38095 ft | 371 kts | 228° |
| 2026-02-17 08:35 | 33.05246 | 131.57791 | 38112 ft | 368 kts | 227° |
| 2026-02-17 08:36 | 33.00872 | 131.54561 | 38100 ft | 370 kts | 228° |
| 2026-02-17 08:36 | 32.96480 | 131.51314 | 38104 ft | 370 kts | 229° |
| 2026-02-17 08:37 | 32.92134 | 131.48103 | 38100 ft | 368 kts | 228° |
| 2026-02-17 08:37 | 32.87790 | 131.44910 | 38068 ft | 368 kts | 229° |
| 2026-02-17 08:38 | 32.83406 | 131.41695 | 38054 ft | 370 kts | 229° |
| 2026-02-17 08:38 | 32.79045 | 131.38469 | 38051 ft | 370 kts | 229° |
| 2026-02-17 08:39 | 32.72527 | 131.33585 | 38055 ft | 370 kts | 227° |
| 2026-02-17 08:39 | 32.68187 | 131.30325 | 38068 ft | 370 kts | 228° |
| 2026-02-17 08:40 | 32.63851 | 131.27075 | 38072 ft | 372 kts | 228° |
| 2026-02-17 08:40 | 32.59483 | 131.23819 | 38061 ft | 371 kts | 228° |
| 2026-02-17 08:41 | 32.55117 | 131.20561 | 38071 ft | 370 kts | 228° |
| 2026-02-17 08:41 | 32.50741 | 131.17311 | 38067 ft | 370 kts | 227° |
| 2026-02-17 08:42 | 32.46366 | 131.14062 | 38047 ft | 372 kts | 228° |
| 2026-02-17 08:43 | 32.39811 | 131.09213 | 38065 ft | 372 kts | 228° |
| 2026-02-17 08:43 | 32.34837 | 131.05600 | 38057 ft | 373 kts | 227° |
| 2026-02-17 08:44 | 32.30432 | 131.02416 | 38071 ft | 371 kts | 227° |
| 2026-02-17 08:44 | 32.26043 | 130.99242 | 38074 ft | 371 kts | 226° |
| 2026-02-17 08:45 | 32.21621 | 130.96048 | 38079 ft | 372 kts | 227° |
| 2026-02-17 08:45 | 32.17210 | 130.92871 | 38094 ft | 372 kts | 227° |
| 2026-02-17 08:46 | 32.12780 | 130.89682 | 38100 ft | 372 kts | 227° |
| 2026-02-17 08:46 | 32.08396 | 130.86465 | 38092 ft | 371 kts | 228° |
| 2026-02-17 08:47 | 32.01822 | 130.81636 | 38077 ft | 371 kts | 227° |
| 2026-02-17 08:47 | 31.97427 | 130.78420 | 38075 ft | 372 kts | 227° |
| 2026-02-17 08:48 | 31.93052 | 130.75218 | 38075 ft | 371 kts | 227° |
| 2026-02-17 08:48 | 31.88676 | 130.72032 | 38072 ft | 371 kts | 227° |
| 2026-02-17 08:49 | 31.84260 | 130.68839 | 38063 ft | 373 kts | 227° |
| 2026-02-17 08:49 | 31.79844 | 130.65630 | 38068 ft | 373 kts | 227° |
| 2026-02-17 08:50 | 31.75575 | 130.62271 | 38070 ft | 365 kts | 231° |
| 2026-02-17 08:51 | 31.69786 | 130.56651 | 38071 ft | 355 kts | 236° |
| 2026-02-17 08:51 | 31.66359 | 130.52605 | 38083 ft | 349 kts | 239° |
| 2026-02-17 08:52 | 31.63231 | 130.48296 | 38085 ft | 344 kts | 242° |
| 2026-02-17 08:52 | 31.60303 | 130.43877 | 38097 ft | 347 kts | 242° |
| 2026-02-17 08:53 | 31.57332 | 130.39412 | 38090 ft | 347 kts | 242° |
| 2026-02-17 08:53 | 31.54363 | 130.34932 | 38099 ft | 347 kts | 242° |
| 2026-02-17 08:54 | 31.51425 | 130.30476 | 38100 ft | 347 kts | 242° |
| 2026-02-17 08:54 | 31.48476 | 130.25995 | 38104 ft | 350 kts | 242° |
| 2026-02-17 08:55 | 31.43990 | 130.19214 | 38110 ft | 352 kts | 242° |
| 2026-02-17 08:55 | 31.41003 | 130.14714 | 38115 ft | 350 kts | 242° |
| 2026-02-17 08:56 | 31.38035 | 130.10236 | 38107 ft | 349 kts | 242° |
| 2026-02-17 08:56 | 31.35043 | 130.05733 | 38111 ft | 350 kts | 242° |
| 2026-02-17 08:57 | 31.32069 | 130.01265 | 38124 ft | 348 kts | 242° |
| 2026-02-17 08:57 | 31.29094 | 129.96794 | 38117 ft | 348 kts | 242° |
| 2026-02-17 08:58 | 31.26136 | 129.92345 | 38118 ft | 349 kts | 242° |
| 2026-02-17 08:59 | 31.21654 | 129.85623 | 38123 ft | 349 kts | 242° |
| 2026-02-17 08:59 | 31.18656 | 129.81140 | 38113 ft | 348 kts | 242° |
| 2026-02-17 09:00 | 31.15692 | 129.76706 | 38117 ft | 349 kts | 242° |
| 2026-02-17 09:00 | 31.12696 | 129.72237 | 38124 ft | 350 kts | 242° |
| 2026-02-17 09:01 | 31.09696 | 129.67766 | 38116 ft | 349 kts | 242° |
| 2026-02-17 09:01 | 31.06724 | 129.63341 | 38130 ft | 348 kts | 242° |
| 2026-02-17 09:02 | 31.03737 | 129.58899 | 38135 ft | 348 kts | 242° |
| 2026-02-17 09:02 | 31.00752 | 129.54460 | 38124 ft | 348 kts | 242° |
| 2026-02-17 09:03 | 30.96272 | 129.47818 | 38120 ft | 349 kts | 242° |
| 2026-02-17 09:03 | 30.93283 | 129.43391 | 38131 ft | 348 kts | 242° |
| 2026-02-17 09:04 | 30.90285 | 129.38959 | 38123 ft | 348 kts | 241° |
| 2026-02-17 09:04 | 30.87256 | 129.34514 | 38133 ft | 350 kts | 241° |
| 2026-02-17 09:05 | 30.84234 | 129.30064 | 38122 ft | 351 kts | 241° |
| 2026-02-17 09:05 | 30.81227 | 129.25632 | 38125 ft | 349 kts | 241° |
| 2026-02-17 09:06 | 30.78220 | 129.21205 | 38145 ft | 351 kts | 242° |
| 2026-02-17 09:07 | 30.73767 | 129.14467 | 38135 ft | 351 kts | 242° |
| 2026-02-17 09:07 | 30.70824 | 129.09976 | 38146 ft | 350 kts | 242° |
| 2026-02-17 09:08 | 30.67872 | 129.05484 | 38143 ft | 349 kts | 242° |
| 2026-02-17 09:08 | 30.64928 | 129.01007 | 38117 ft | 351 kts | 242° |
| 2026-02-17 09:09 | 30.61971 | 128.96513 | 38151 ft | 351 kts | 242° |
| 2026-02-17 09:09 | 30.58987 | 128.91992 | 38127 ft | 352 kts | 242° |
| 2026-02-17 09:10 | 30.56016 | 128.87489 | 38133 ft | 355 kts | 242° |
| 2026-02-17 09:10 | 30.53017 | 128.82951 | 38147 ft | 354 kts | 242° |
| 2026-02-17 09:11 | 30.48509 | 128.76147 | 38134 ft | 355 kts | 242° |
| 2026-02-17 09:11 | 30.45513 | 128.71623 | 38135 ft | 356 kts | 242° |
| 2026-02-17 09:12 | 30.42498 | 128.67085 | 38147 ft | 355 kts | 242° |
| 2026-02-17 09:12 | 30.39486 | 128.62555 | 38155 ft | 355 kts | 242° |
| 2026-02-17 09:13 | 30.36476 | 128.58040 | 38147 ft | 354 kts | 242° |
| 2026-02-17 09:13 | 30.33486 | 128.53545 | 38146 ft | 354 kts | 243° |
| 2026-02-17 09:14 | 30.30484 | 128.49042 | 38139 ft | 355 kts | 242° |
| 2026-02-17 09:15 | 30.25942 | 128.42241 | 38139 ft | 357 kts | 242° |
| 2026-02-17 09:15 | 30.22901 | 128.37692 | 38149 ft | 358 kts | 242° |
| 2026-02-17 09:16 | 30.19853 | 128.33139 | 38152 ft | 359 kts | 242° |
| 2026-02-17 09:16 | 30.16810 | 128.28577 | 38148 ft | 359 kts | 242° |
| 2026-02-17 09:17 | 30.13768 | 128.24034 | 38155 ft | 360 kts | 242° |
| 2026-02-17 09:17 | 30.10712 | 128.19476 | 38145 ft | 358 kts | 241° |
| 2026-02-17 09:18 | 30.07632 | 128.14900 | 38165 ft | 360 kts | 242° |
| 2026-02-17 09:18 | 30.04593 | 128.10381 | 38148 ft | 360 kts | 241° |
| 2026-02-17 09:19 | 29.99965 | 128.03525 | 38154 ft | 361 kts | 241° |
| 2026-02-17 09:19 | 29.96892 | 127.98978 | 38148 ft | 361 kts | 241° |
| 2026-02-17 09:20 | 29.93780 | 127.94383 | 38141 ft | 363 kts | 241° |
| 2026-02-17 09:20 | 29.90684 | 127.89816 | 38140 ft | 363 kts | 242° |
| 2026-02-17 09:21 | 29.87569 | 127.85247 | 38140 ft | 361 kts | 241° |
| 2026-02-17 09:21 | 29.84327 | 127.80801 | 38148 ft | 364 kts | 239° |
| 2026-02-17 09:22 | 29.81030 | 127.76366 | 38147 ft | 365 kts | 239° |
| 2026-02-17 09:23 | 29.76089 | 127.69719 | 38152 ft | 364 kts | 239° |
| 2026-02-17 09:23 | 29.72818 | 127.65330 | 38157 ft | 364 kts | 239° |
| 2026-02-17 09:24 | 29.69523 | 127.60922 | 38155 ft | 364 kts | 239° |
| 2026-02-17 09:24 | 29.66233 | 127.56520 | 38168 ft | 363 kts | 239° |
| 2026-02-17 09:25 | 29.62935 | 127.52104 | 38158 ft | 365 kts | 239° |
| 2026-02-17 09:25 | 29.59611 | 127.47673 | 38155 ft | 366 kts | 239° |
| 2026-02-17 09:26 | 29.56462 | 127.43173 | 38158 ft | 363 kts | 240° |
| 2026-02-17 09:26 | 29.53310 | 127.38622 | 38168 ft | 363 kts | 240° |
| 2026-02-17 09:27 | 29.48617 | 127.31830 | 38163 ft | 364 kts | 240° |
| 2026-02-17 09:27 | 29.45478 | 127.27285 | 38170 ft | 363 kts | 240° |
| 2026-02-17 09:28 | 29.42334 | 127.22733 | 38158 ft | 365 kts | 240° |
| 2026-02-17 09:28 | 29.39190 | 127.18199 | 38165 ft | 365 kts | 240° |
| 2026-02-17 09:29 | 29.36028 | 127.13642 | 38158 ft | 366 kts | 240° |
| 2026-02-17 09:29 | 29.32847 | 127.09064 | 38167 ft | 367 kts | 240° |
| 2026-02-17 09:30 | 29.28106 | 127.02259 | 38176 ft | 364 kts | 240° |
| 2026-02-17 09:31 | 29.23374 | 126.95467 | 38161 ft | 366 kts | 240° |
| 2026-02-17 09:31 | 29.20204 | 126.90924 | 38164 ft | 367 kts | 239° |
| 2026-02-17 09:32 | 29.17002 | 126.86352 | 38179 ft | 368 kts | 240° |
| 2026-02-17 09:32 | 29.13812 | 126.81795 | 38175 ft | 367 kts | 240° |
| 2026-02-17 09:33 | 29.10630 | 126.77257 | 38172 ft | 368 kts | 240° |
| 2026-02-17 09:33 | 29.07416 | 126.72678 | 38186 ft | 369 kts | 240° |
| 2026-02-17 09:34 | 29.04234 | 126.68147 | 38190 ft | 367 kts | 240° |
| 2026-02-17 09:35 | 28.99432 | 126.61327 | 38206 ft | 366 kts | 240° |
| 2026-02-17 09:35 | 28.96243 | 126.56820 | 38192 ft | 367 kts | 239° |
| 2026-02-17 09:36 | 28.92959 | 126.52372 | 38194 ft | 369 kts | 239° |
| 2026-02-17 09:36 | 28.89641 | 126.47903 | 38210 ft | 368 kts | 239° |
| 2026-02-17 09:37 | 28.86315 | 126.43457 | 38205 ft | 370 kts | 238° |
| 2026-02-17 09:37 | 28.82989 | 126.39005 | 38205 ft | 369 kts | 238° |
| 2026-02-17 09:38 | 28.79675 | 126.34556 | 38199 ft | 370 kts | 238° |
| 2026-02-17 09:38 | 28.76339 | 126.30059 | 38205 ft | 370 kts | 238° |
| 2026-02-17 09:39 | 28.71351 | 126.23357 | 38208 ft | 370 kts | 238° |
| 2026-02-17 09:39 | 28.68024 | 126.18894 | 38197 ft | 370 kts | 238° |
| 2026-02-17 09:40 | 28.64697 | 126.14440 | 38208 ft | 371 kts | 238° |
| 2026-02-17 09:40 | 28.61431 | 126.09940 | 38203 ft | 370 kts | 239° |
| 2026-02-17 09:41 | 28.58223 | 126.05383 | 38215 ft | 370 kts | 239° |
| 2026-02-17 09:41 | 28.55008 | 126.00833 | 38214 ft | 370 kts | 239° |
| 2026-02-17 09:42 | 28.51765 | 125.96259 | 38214 ft | 371 kts | 239° |
| 2026-02-17 09:43 | 28.46920 | 125.89433 | 38221 ft | 371 kts | 238° |
| 2026-02-17 09:43 | 28.43675 | 125.84872 | 38207 ft | 370 kts | 238° |
| 2026-02-17 09:44 | 28.40449 | 125.80347 | 38219 ft | 370 kts | 238° |
| 2026-02-17 09:44 | 28.37211 | 125.75806 | 38210 ft | 371 kts | 238° |
| 2026-02-17 09:45 | 28.33966 | 125.71257 | 38203 ft | 373 kts | 238° |
| 2026-02-17 09:45 | 28.30698 | 125.66690 | 38204 ft | 373 kts | 238° |
| 2026-02-17 09:46 | 28.27436 | 125.62131 | 38203 ft | 373 kts | 239° |
| 2026-02-17 09:46 | 28.24172 | 125.57575 | 38223 ft | 373 kts | 239° |
| 2026-02-17 09:47 | 28.19258 | 125.50721 | 38201 ft | 373 kts | 239° |
| 2026-02-17 09:47 | 28.16006 | 125.46200 | 38226 ft | 372 kts | 239° |
| 2026-02-17 09:48 | 28.12734 | 125.41639 | 38227 ft | 374 kts | 238° |
| 2026-02-17 09:48 | 28.09451 | 125.37082 | 38235 ft | 374 kts | 238° |
| 2026-02-17 09:49 | 28.06177 | 125.32527 | 38221 ft | 374 kts | 238° |
| 2026-02-17 09:49 | 28.02895 | 125.27958 | 38228 ft | 374 kts | 238° |
| 2026-02-17 09:50 | 27.99609 | 125.23402 | 38225 ft | 374 kts | 238° |
| 2026-02-17 09:51 | 27.94659 | 125.16541 | 38221 ft | 376 kts | 238° |
| 2026-02-17 09:51 | 27.91361 | 125.11993 | 38240 ft | 377 kts | 238° |
| 2026-02-17 09:52 | 27.88026 | 125.07410 | 38235 ft | 377 kts | 238° |
| 2026-02-17 09:52 | 27.84699 | 125.02857 | 38231 ft | 377 kts | 238° |
| 2026-02-17 09:53 | 27.81357 | 124.98277 | 38226 ft | 377 kts | 238° |
| 2026-02-17 09:53 | 27.78027 | 124.93704 | 38239 ft | 378 kts | 238° |
| 2026-02-17 09:54 | 27.74686 | 124.89117 | 38236 ft | 379 kts | 238° |
| 2026-02-17 09:54 | 27.71349 | 124.84544 | 38237 ft | 379 kts | 238° |
| 2026-02-17 09:55 | 27.66323 | 124.77657 | 38238 ft | 379 kts | 237° |
| 2026-02-17 09:55 | 27.62953 | 124.73052 | 38226 ft | 380 kts | 238° |
| 2026-02-17 09:56 | 27.59602 | 124.68460 | 38244 ft | 379 kts | 238° |
| 2026-02-17 09:56 | 27.56242 | 124.63857 | 38232 ft | 380 kts | 238° |
| 2026-02-17 09:57 | 27.52894 | 124.59284 | 38238 ft | 381 kts | 238° |
| 2026-02-17 09:57 | 27.49533 | 124.54694 | 38225 ft | 380 kts | 238° |
| 2026-02-17 09:58 | 27.46160 | 124.50087 | 38240 ft | 381 kts | 237° |
| 2026-02-17 09:59 | 27.41096 | 124.43195 | 38230 ft | 382 kts | 238° |
| 2026-02-17 09:59 | 27.37727 | 124.38613 | 38236 ft | 381 kts | 237° |
| 2026-02-17 10:00 | 27.34332 | 124.34000 | 38232 ft | 381 kts | 237° |
| 2026-02-17 10:00 | 27.30967 | 124.29408 | 38233 ft | 382 kts | 237° |
| 2026-02-17 10:01 | 27.27574 | 124.24796 | 38219 ft | 384 kts | 237° |
| 2026-02-17 10:01 | 27.24180 | 124.20207 | 38231 ft | 383 kts | 237° |
| 2026-02-17 10:02 | 27.20774 | 124.15597 | 38236 ft | 383 kts | 237° |
| 2026-02-17 10:02 | 27.17362 | 124.10989 | 38226 ft | 384 kts | 237° |
| 2026-02-17 10:03 | 27.12235 | 124.04088 | 38221 ft | 384 kts | 237° |
| 2026-02-17 10:03 | 27.08835 | 123.99503 | 38223 ft | 384 kts | 237° |
| 2026-02-17 10:04 | 27.05401 | 123.94916 | 38220 ft | 386 kts | 236° |
| 2026-02-17 10:04 | 27.01933 | 123.90300 | 38226 ft | 385 kts | 236° |
| 2026-02-17 10:05 | 26.98487 | 123.85728 | 38223 ft | 386 kts | 236° |
| 2026-02-17 10:05 | 26.95024 | 123.81132 | 38224 ft | 386 kts | 236° |
| 2026-02-17 10:06 | 26.91552 | 123.76536 | 38234 ft | 387 kts | 236° |
| 2026-02-17 10:07 | 26.86311 | 123.69636 | 38222 ft | 388 kts | 236° |
| 2026-02-17 10:07 | 26.82822 | 123.65054 | 38223 ft | 388 kts | 236° |
| 2026-02-17 10:08 | 26.79324 | 123.60449 | 38231 ft | 387 kts | 236° |
| 2026-02-17 10:08 | 26.75842 | 123.55859 | 38224 ft | 388 kts | 236° |
| 2026-02-17 10:09 | 26.72369 | 123.51289 | 38222 ft | 389 kts | 236° |
| 2026-02-17 10:09 | 26.68862 | 123.46677 | 38224 ft | 389 kts | 236° |
| 2026-02-17 10:10 | 26.65370 | 123.42085 | 38231 ft | 387 kts | 236° |
| 2026-02-17 10:10 | 26.61877 | 123.37500 | 38223 ft | 389 kts | 237° |
| 2026-02-17 10:11 | 26.56609 | 123.30571 | 38234 ft | 391 kts | 236° |
| 2026-02-17 10:11 | 26.53116 | 123.25987 | 38229 ft | 389 kts | 236° |
| 2026-02-17 10:12 | 26.49602 | 123.21382 | 38219 ft | 391 kts | 236° |
| 2026-02-17 10:12 | 26.46082 | 123.16782 | 38225 ft | 390 kts | 236° |
| 2026-02-17 10:13 | 26.42545 | 123.12169 | 38220 ft | 391 kts | 236° |
| 2026-02-17 10:13 | 26.39026 | 123.07584 | 38212 ft | 390 kts | 236° |
| 2026-02-17 10:14 | 26.35488 | 123.02984 | 38217 ft | 391 kts | 236° |
| 2026-02-17 10:15 | 26.30194 | 122.96089 | 38218 ft | 391 kts | 236° |
| 2026-02-17 10:15 | 26.26654 | 122.91483 | 38221 ft | 392 kts | 236° |
| 2026-02-17 10:16 | 26.23110 | 122.86880 | 38228 ft | 393 kts | 236° |
| 2026-02-17 10:16 | 26.19572 | 122.82295 | 38234 ft | 393 kts | 236° |
| 2026-02-17 10:17 | 26.15993 | 122.77660 | 38232 ft | 394 kts | 235° |
| 2026-02-17 10:17 | 26.12421 | 122.73047 | 38223 ft | 394 kts | 236° |
| 2026-02-17 10:18 | 26.08861 | 122.68449 | 38233 ft | 394 kts | 236° |
| 2026-02-17 10:18 | 26.05268 | 122.63814 | 38236 ft | 395 kts | 236° |
| 2026-02-17 10:19 | 25.99871 | 122.56867 | 37883 ft | 396 kts | 236° |
| 2026-02-17 10:19 | 25.98085 | 122.54573 | 37504 ft | 393 kts | 236° |
| 2026-02-17 10:19 | 25.96329 | 122.52316 | 37065 ft | 388 kts | 236° |
| 2026-02-17 10:20 | 25.94558 | 122.50036 | 36518 ft | 387 kts | 236° |
| 2026-02-17 10:20 | 25.92817 | 122.47793 | 35848 ft | 388 kts | 236° |
| 2026-02-17 10:20 | 25.91047 | 122.45512 | 35156 ft | 388 kts | 236° |
| 2026-02-17 10:20 | 25.89288 | 122.43246 | 34467 ft | 387 kts | 236° |
| 2026-02-17 10:21 | 25.87531 | 122.41003 | 33773 ft | 388 kts | 236° |
| 2026-02-17 10:21 | 25.85750 | 122.38737 | 33067 ft | 387 kts | 236° |
| 2026-02-17 10:21 | 25.83987 | 122.36485 | 32388 ft | 387 kts | 236° |
| 2026-02-17 10:21 | 25.82244 | 122.34256 | 31708 ft | 388 kts | 236° |
| 2026-02-17 10:22 | 25.80468 | 122.31967 | 30986 ft | 391 kts | 236° |
| 2026-02-17 10:22 | 25.78688 | 122.29678 | 30255 ft | 393 kts | 235° |
| 2026-02-17 10:22 | 25.77078 | 122.27297 | 29714 ft | 383 kts | 244° |
| 2026-02-17 10:23 | 25.74837 | 122.22059 | 28842 ft | 371 kts | 249° |
| 2026-02-17 10:23 | 25.73800 | 122.19492 | 28437 ft | 367 kts | 249° |
| 2026-02-17 10:23 | 25.72755 | 122.16912 | 28048 ft | 363 kts | 249° |
| 2026-02-17 10:23 | 25.71730 | 122.14378 | 27640 ft | 359 kts | 249° |
| 2026-02-17 10:24 | 25.70720 | 122.11881 | 27225 ft | 355 kts | 249° |
| 2026-02-17 10:24 | 25.69711 | 122.09390 | 26828 ft | 352 kts | 249° |
| 2026-02-17 10:24 | 25.68720 | 122.06941 | 26425 ft | 348 kts | 249° |
| 2026-02-17 10:24 | 25.67739 | 122.04518 | 26029 ft | 345 kts | 249° |
| 2026-02-17 10:25 | 25.66765 | 122.02120 | 25648 ft | 341 kts | 249° |
| 2026-02-17 10:25 | 25.65799 | 121.99741 | 25266 ft | 338 kts | 249° |
| 2026-02-17 10:25 | 25.64827 | 121.97346 | 24855 ft | 336 kts | 249° |
| 2026-02-17 10:25 | 25.63884 | 121.95028 | 24418 ft | 335 kts | 249° |
| 2026-02-17 10:26 | 25.62928 | 121.92674 | 24003 ft | 333 kts | 249° |
| 2026-02-17 10:26 | 25.61989 | 121.90367 | 23616 ft | 330 kts | 249° |
| 2026-02-17 10:26 | 25.61046 | 121.88048 | 23242 ft | 327 kts | 249° |
| 2026-02-17 10:27 | 25.59187 | 121.83484 | 22468 ft | 325 kts | 250° |
| 2026-02-17 10:27 | 25.58261 | 121.81215 | 22074 ft | 324 kts | 249° |
| 2026-02-17 10:27 | 25.57343 | 121.78972 | 21679 ft | 323 kts | 249° |
| 2026-02-17 10:27 | 25.56424 | 121.76723 | 21270 ft | 321 kts | 249° |
| 2026-02-17 10:28 | 25.55505 | 121.74473 | 20820 ft | 322 kts | 250° |
| 2026-02-17 10:28 | 25.54572 | 121.72189 | 20347 ft | 323 kts | 250° |
| 2026-02-17 10:28 | 25.53658 | 121.69956 | 19920 ft | 323 kts | 250° |
| 2026-02-17 10:28 | 25.52728 | 121.67690 | 19445 ft | 324 kts | 250° |
| 2026-02-17 10:29 | 25.51801 | 121.65424 | 19000 ft | 323 kts | 251° |
| 2026-02-17 10:29 | 25.50875 | 121.63161 | 18589 ft | 322 kts | 251° |
| 2026-02-17 10:29 | 25.49955 | 121.60926 | 18165 ft | 323 kts | 250° |
| 2026-02-17 10:29 | 25.48919 | 121.58689 | 17668 ft | 326 kts | 246° |
| 2026-02-17 10:30 | 25.47717 | 121.56566 | 17226 ft | 328 kts | 242° |
| 2026-02-17 10:30 | 25.46305 | 121.54516 | 16837 ft | 346 kts | 237° |
| 2026-02-17 10:30 | 25.44755 | 121.52476 | 16378 ft | 350 kts | 236° |
| 2026-02-17 10:31 | 25.41569 | 121.48382 | 15465 ft | 349 kts | 235° |
| 2026-02-17 10:31 | 25.40004 | 121.46378 | 14972 ft | 349 kts | 234° |
| 2026-02-17 10:31 | 25.38408 | 121.44334 | 14477 ft | 350 kts | 234° |
| 2026-02-17 10:31 | 25.36811 | 121.42291 | 14027 ft | 349 kts | 234° |
| 2026-02-17 10:32 | 25.35227 | 121.40266 | 13541 ft | 349 kts | 233° |
| 2026-02-17 10:32 | 25.33638 | 121.38238 | 13058 ft | 347 kts | 233° |
| 2026-02-17 10:32 | 25.32077 | 121.36247 | 12458 ft | 348 kts | 233° |
| 2026-02-17 10:32 | 25.30488 | 121.34217 | 11881 ft | 348 kts | 232° |
| 2026-02-17 10:33 | 25.28915 | 121.32198 | 11342 ft | 347 kts | 232° |
| 2026-02-17 10:33 | 25.27338 | 121.30180 | 10801 ft | 345 kts | 232° |
| 2026-02-17 10:33 | 25.25774 | 121.28185 | 10446 ft | 339 kts | 232° |
| 2026-02-17 10:33 | 25.24283 | 121.26287 | 10176 ft | 316 kts | 232° |
| 2026-02-17 10:34 | 25.22886 | 121.24518 | 9943 ft | 290 kts | 232° |
| 2026-02-17 10:34 | 25.21612 | 121.22903 | 9873 ft | 270 kts | 233° |
| 2026-02-17 10:34 | 25.20384 | 121.21339 | 9611 ft | 273 kts | 232° |
| 2026-02-17 10:35 | 25.17893 | 121.18163 | 8502 ft | 270 kts | 232° |
| 2026-02-17 10:35 | 25.16685 | 121.16627 | 7956 ft | 264 kts | 232° |
| 2026-02-17 10:35 | 25.15490 | 121.15110 | 7407 ft | 261 kts | 231° |
| 2026-02-17 10:35 | 25.14313 | 121.13614 | 6863 ft | 258 kts | 231° |
| 2026-02-17 10:36 | 25.13144 | 121.12131 | 6319 ft | 255 kts | 231° |
| 2026-02-17 10:36 | 25.11986 | 121.10664 | 5766 ft | 254 kts | 231° |
| 2026-02-17 10:36 | 25.10822 | 121.09184 | 5207 ft | 253 kts | 231° |
| 2026-02-17 10:36 | 25.09679 | 121.07722 | 4657 ft | 254 kts | 230° |
| 2026-02-17 10:37 | 25.08519 | 121.06245 | 4103 ft | 257 kts | 229° |
| 2026-02-17 10:37 | 25.07343 | 121.04755 | 3551 ft | 259 kts | 228° |
| 2026-02-17 10:37 | 25.06152 | 121.03249 | 3002 ft | 262 kts | 228° |
| 2026-02-17 10:37 | 25.04966 | 121.01748 | 2604 ft | 258 kts | 229° |
| 2026-02-17 10:38 | 25.03808 | 121.00285 | 2528 ft | 242 kts | 229° |
| 2026-02-17 10:38 | 25.02736 | 120.98920 | 2496 ft | 228 kts | 228° |
| 2026-02-17 10:38 | 25.01717 | 120.97674 | 2524 ft | 213 kts | 220° |
| 2026-02-17 10:39 | 24.99272 | 120.97671 | 2494 ft | 176 kts | 124° |
| 2026-02-17 10:39 | 24.98683 | 120.98815 | 2505 ft | 170 kts | 105° |
| 2026-02-17 10:39 | 24.98235 | 121.00011 | 2484 ft | 172 kts | 106° |
| 2026-02-17 10:39 | 24.97732 | 121.01228 | 2489 ft | 173 kts | 108° |
| 2026-02-17 10:40 | 24.97205 | 121.02418 | 2487 ft | 175 kts | 109° |
| 2026-02-17 10:40 | 24.96649 | 121.03607 | 2487 ft | 175 kts | 110° |
| 2026-02-17 10:40 | 24.96068 | 121.04812 | 2492 ft | 177 kts | 111° |
| 2026-02-17 10:40 | 24.95485 | 121.06003 | 2488 ft | 177 kts | 112° |
| 2026-02-17 10:41 | 24.94949 | 121.07205 | 2469 ft | 170 kts | 98° |
| 2026-02-17 10:41 | 24.95130 | 121.08410 | 2477 ft | 158 kts | 58° |
| 2026-02-17 10:41 | 24.95797 | 121.09380 | 2486 ft | 157 kts | 49° |
| 2026-02-17 10:41 | 24.96494 | 121.10217 | 2484 ft | 143 kts | 49° |
| 2026-02-17 10:42 | 24.97157 | 121.11015 | 2487 ft | 139 kts | 48° |
| 2026-02-17 10:42 | 24.97809 | 121.11807 | 2501 ft | 139 kts | 49° |
| 2026-02-17 10:42 | 24.98448 | 121.12617 | 2388 ft | 140 kts | 48° |
| 2026-02-17 10:43 | 24.99723 | 121.14235 | 2035 ft | 139 kts | 49° |
| 2026-02-17 10:43 | 25.00340 | 121.15025 | 1861 ft | 135 kts | 49° |
| 2026-02-17 10:43 | 25.00961 | 121.15819 | 1676 ft | 134 kts | 47° |
| 2026-02-17 10:43 | 25.01572 | 121.16597 | 1503 ft | 134 kts | 47° |
| 2026-02-17 10:44 | 25.02184 | 121.17377 | 1317 ft | 133 kts | 48° |
| 2026-02-17 10:44 | 25.02783 | 121.18150 | 1134 ft | 133 kts | 47° |
| 2026-02-17 10:44 | 25.03392 | 121.18920 | 956 ft | 132 kts | 47° |
| 2026-02-17 10:44 | 25.03993 | 121.19690 | 761 ft | 132 kts | 48° |
| 2026-02-17 10:45 | 25.04601 | 121.20458 | 597 ft | 132 kts | 48° |
| 2026-02-17 10:45 | 25.05200 | 121.21230 | 412 ft | 132 kts | 47° |
| 2026-02-17 10:45 | 25.05801 | 121.21988 | 241 ft | 130 kts | 48° |
| 2026-02-17 10:45 | 25.06388 | 121.22739 | 122 ft | 125 kts | 47° |
| 2026-02-17 10:46 | 25.06866 | 121.23344 | 118 ft | 78 kts | 48° |
| 2026-02-17 10:46 | 25.07118 | 121.23663 | 117 ft | 42 kts | 49° |
| 2026-02-17 10:46 | 25.07301 | 121.23896 | 117 ft | 36 kts | 49° |
| 2026-02-17 10:47 | 25.07549 | 121.24160 | 118 ft | 20 kts | 28° |
| 2026-02-17 10:47 | 25.07630 | 121.24200 | 117 ft | 9 kts | 20° |
| 2026-02-17 10:47 | 25.07688 | 121.24222 | 117 ft | 6 kts | 19° |
| 2026-02-17 10:47 | 25.07737 | 121.24240 | 117 ft | 8 kts | 19° |
| 2026-02-17 10:48 | 25.07796 | 121.24263 | 117 ft | 9 kts | 21° |
| 2026-02-17 10:48 | 25.07859 | 121.24301 | 117 ft | 10 kts | 36° |
| 2026-02-17 10:48 | 25.07915 | 121.24361 | 117 ft | 11 kts | 48° |
| 2026-02-17 10:48 | 25.07970 | 121.24431 | 117 ft | 12 kts | 49° |
| 2026-02-17 10:49 | 25.08011 | 121.24465 | 117 ft | 6 kts | 12° |
| 2026-02-17 10:49 | 25.08059 | 121.24447 | 117 ft | 8 kts | 323° |
| 2026-02-17 10:49 | 25.08109 | 121.24399 | 117 ft | 10 kts | 319° |
| 2026-02-17 10:49 | 25.08166 | 121.24345 | 117 ft | 11 kts | 319° |
| 2026-02-17 10:50 | 25.08230 | 121.24284 | 117 ft | 12 kts | 319° |
| 2026-02-17 10:50 | 25.08298 | 121.24219 | 117 ft | 13 kts | 319° |
| 2026-02-17 10:50 | 25.08369 | 121.24151 | 117 ft | 13 kts | 319° |
| 2026-02-17 10:51 | 25.08485 | 121.24040 | 117 ft | 11 kts | 319° |
| 2026-02-17 10:51 | 25.08548 | 121.23979 | 117 ft | 12 kts | 319° |
| 2026-02-17 10:51 | 25.08617 | 121.23913 | 117 ft | 11 kts | 319° |
| 2026-02-17 10:51 | 25.08654 | 121.23871 | 117 ft | 6 kts | 298° |
| 2026-02-17 10:52 | 25.08648 | 121.23819 | 117 ft | 8 kts | 239° |
| 2026-02-17 10:52 | 25.08604 | 121.23760 | 117 ft | 10 kts | 229° |
| 2026-02-17 10:52 | 25.08550 | 121.23692 | 117 ft | 12 kts | 229° |
| 2026-02-17 10:52 | 25.08488 | 121.23611 | 117 ft | 14 kts | 229° |
| 2026-02-17 10:53 | 25.08422 | 121.23529 | 117 ft | 12 kts | 229° |
| 2026-02-17 10:53 | 25.08361 | 121.23452 | 117 ft | 14 kts | 229° |
| 2026-02-17 10:53 | 25.08291 | 121.23363 | 117 ft | 16 kts | 229° |
| 2026-02-17 10:53 | 25.08218 | 121.23269 | 117 ft | 10 kts | 229° |
| 2026-02-17 10:54 | 25.08165 | 121.23202 | 117 ft | 12 kts | 229° |
| 2026-02-17 10:54 | 25.08104 | 121.23124 | 117 ft | 14 kts | 229° |
| 2026-02-17 10:54 | 25.08033 | 121.23035 | 117 ft | 16 kts | 229° |
| 2026-02-17 10:55 | 25.07941 | 121.22918 | 117 ft | 4 kts | 221° |
| 2026-02-17 10:55 | 25.07912 | 121.22914 | 117 ft | 5 kts | 161° |
| 2026-02-17 10:55 | 25.07888 | 121.22932 | 117 ft | 2 kts | 137° |
| 2026-02-17 10:55 | 25.07869 | 121.22950 | 117 ft | 4 kts | 138° |
| 2026-02-17 10:56 | 25.07857 | 121.22963 | 117 ft | 1 kts | 138° |
| 2026-02-17 10:56 | 25.07850 | 121.22969 | 117 ft | 0 kts | 138° |
| 2026-02-17 10:56 | 25.07848 | 121.22971 | 117 ft | 0 kts | 138° |